sensor_id;sensor_type;location;lat;lon;timestamp;temperature;humidity
3488;DHT22;38546;48.170;11.724;2022-08-21T00:01:15;17.40;99.90
3488;DHT22;38546;48.170;11.724;2022-08-21T00:04:08;17.50;99.90
3488;DHT22;38546;48.170;11.724;2022-08-21T00:06:58;17.40;99.90
3488;DHT22;38546;48.170;11.724;2022-08-21T00:09:47;17.40;99.90
3488;DHT22;38546;48.170;11.724;2022-08-21T00:12:37;17.20;99.90
3488;DHT22;38546;48.170;11.724;2022-08-21T00:15:30;17.20;99.90
3488;DHT22;38546;48.170;11.724;2022-08-21T00:18:20;17.20;99.90
3488;DHT22;38546;48.170;11.724;2022-08-21T00:21:12;17.20;99.90
3488;DHT22;38546;48.170;11.724;2022-08-21T00:24:04;17.20;99.90
3488;DHT22;38546;48.170;11.724;2022-08-21T00:26:54;17.10;99.90
3488;DHT22;38546;48.170;11.724;2022-08-21T00:29:44;17.30;99.90
3488;DHT22;38546;48.170;11.724;2022-08-21T00:32:36;17.20;99.90
3488;DHT22;38546;48.170;11.724;2022-08-21T00:35:30;17.20;99.90
3488;DHT22;38546;48.170;11.724;2022-08-21T00:38:21;17.10;99.90
3488;DHT22;38546;48.170;11.724;2022-08-21T00:41:12;17.00;99.90
3488;DHT22;38546;48.170;11.724;2022-08-21T00:44:02;17.00;99.90
3488;DHT22;38546;48.170;11.724;2022-08-21T00:46:52;17.00;99.90
3488;DHT22;38546;48.170;11.724;2022-08-21T00:49:43;16.90;99.90
3488;DHT22;38546;48.170;11.724;2022-08-21T00:52:34;16.90;99.90
3488;DHT22;38546;48.170;11.724;2022-08-21T00:55:25;17.00;99.90
3488;DHT22;38546;48.170;11.724;2022-08-21T00:58:16;16.80;99.90
3488;DHT22;38546;48.170;11.724;2022-08-21T01:01:06;16.80;99.90
3488;DHT22;38546;48.170;11.724;2022-08-21T01:03:56;16.70;99.90
3488;DHT22;38546;48.170;11.724;2022-08-21T01:06:45;16.80;99.90
3488;DHT22;38546;48.170;11.724;2022-08-21T01:09:36;16.80;99.90
3488;DHT22;38546;48.170;11.724;2022-08-21T01:12:26;16.80;99.90
3488;DHT22;38546;48.170;11.724;2022-08-21T01:15:16;16.80;99.90
3488;DHT22;38546;48.170;11.724;2022-08-21T01:18:08;16.80;99.90
3488;DHT22;38546;48.170;11.724;2022-08-21T01:21:08;16.70;99.90
3488;DHT22;38546;48.170;11.724;2022-08-21T01:23:59;16.70;99.90
3488;DHT22;38546;48.170;11.724;2022-08-21T01:26:49;16.70;99.90
3488;DHT22;38546;48.170;11.724;2022-08-21T01:29:48;16.70;99.90
3488;DHT22;38546;48.170;11.724;2022-08-21T01:32:45;16.70;99.90
3488;DHT22;38546;48.170;11.724;2022-08-21T01:35:36;16.70;99.90
3488;DHT22;38546;48.170;11.724;2022-08-21T01:38:26;16.70;99.90
3488;DHT22;38546;48.170;11.724;2022-08-21T01:41:16;16.70;99.90
3488;DHT22;38546;48.170;11.724;2022-08-21T01:44:06;16.70;99.90
3488;DHT22;38546;48.170;11.724;2022-08-21T01:46:58;16.80;99.90
3488;DHT22;38546;48.170;11.724;2022-08-21T01:49:49;16.70;99.90
3488;DHT22;38546;48.170;11.724;2022-08-21T01:52:39;16.60;99.90
3488;DHT22;38546;48.170;11.724;2022-08-21T01:55:28;16.70;99.90
3488;DHT22;38546;48.170;11.724;2022-08-21T01:58:18;16.60;99.90
3488;DHT22;38546;48.170;11.724;2022-08-21T02:01:08;16.60;99.90
3488;DHT22;38546;48.170;11.724;2022-08-21T02:03:58;16.60;99.90
3488;DHT22;38546;48.170;11.724;2022-08-21T02:06:48;16.60;99.90
3488;DHT22;38546;48.170;11.724;2022-08-21T02:09:38;16.50;99.90
3488;DHT22;38546;48.170;11.724;2022-08-21T02:12:30;16.50;99.90
3488;DHT22;38546;48.170;11.724;2022-08-21T02:15:21;16.40;99.90
3488;DHT22;38546;48.170;11.724;2022-08-21T02:18:10;16.40;99.90
3488;DHT22;38546;48.170;11.724;2022-08-21T02:21:00;16.40;99.90
3488;DHT22;38546;48.170;11.724;2022-08-21T02:23:51;16.30;99.90
3488;DHT22;38546;48.170;11.724;2022-08-21T02:26:40;16.20;99.90
3488;DHT22;38546;48.170;11.724;2022-08-21T02:29:29;16.30;99.90
3488;DHT22;38546;48.170;11.724;2022-08-21T02:32:18;16.20;99.90
3488;DHT22;38546;48.170;11.724;2022-08-21T02:35:08;16.10;99.90
3488;DHT22;38546;48.170;11.724;2022-08-21T02:38:01;16.10;99.90
3488;DHT22;38546;48.170;11.724;2022-08-21T02:40:53;16.20;99.90
3488;DHT22;38546;48.170;11.724;2022-08-21T02:43:44;16.20;99.90
3488;DHT22;38546;48.170;11.724;2022-08-21T02:46:33;16.10;99.90
3488;DHT22;38546;48.170;11.724;2022-08-21T02:49:23;16.10;99.90
3488;DHT22;38546;48.170;11.724;2022-08-21T02:52:12;16.10;99.90
3488;DHT22;38546;48.170;11.724;2022-08-21T02:55:04;16.00;99.90
3488;DHT22;38546;48.170;11.724;2022-08-21T02:57:55;15.90;99.90
3488;DHT22;38546;48.170;11.724;2022-08-21T03:00:46;15.90;99.90
3488;DHT22;38546;48.170;11.724;2022-08-21T03:03:37;16.00;99.90
3488;DHT22;38546;48.170;11.724;2022-08-21T03:06:28;16.00;99.90
3488;DHT22;38546;48.170;11.724;2022-08-21T03:09:18;15.90;99.90
3488;DHT22;38546;48.170;11.724;2022-08-21T03:12:07;15.90;99.90
3488;DHT22;38546;48.170;11.724;2022-08-21T03:14:56;15.80;99.90
3488;DHT22;38546;48.170;11.724;2022-08-21T03:17:47;15.80;99.90
3488;DHT22;38546;48.170;11.724;2022-08-21T03:20:37;15.80;99.90
3488;DHT22;38546;48.170;11.724;2022-08-21T03:23:28;15.80;99.90
3488;DHT22;38546;48.170;11.724;2022-08-21T03:26:19;15.70;99.90
3488;DHT22;38546;48.170;11.724;2022-08-21T03:29:09;15.70;99.90
3488;DHT22;38546;48.170;11.724;2022-08-21T03:31:58;15.70;99.90
3488;DHT22;38546;48.170;11.724;2022-08-21T03:34:48;15.70;99.90
3488;DHT22;38546;48.170;11.724;2022-08-21T03:37:37;15.70;99.90
3488;DHT22;38546;48.170;11.724;2022-08-21T03:40:26;15.80;99.90
3488;DHT22;38546;48.170;11.724;2022-08-21T03:43:16;15.80;99.90
3488;DHT22;38546;48.170;11.724;2022-08-21T03:46:06;15.80;99.90
3488;DHT22;38546;48.170;11.724;2022-08-21T03:48:55;15.90;99.90
3488;DHT22;38546;48.170;11.724;2022-08-21T03:51:45;15.80;99.90
3488;DHT22;38546;48.170;11.724;2022-08-21T03:54:35;15.80;99.90
3488;DHT22;38546;48.170;11.724;2022-08-21T03:57:24;15.80;99.90
3488;DHT22;38546;48.170;11.724;2022-08-21T04:00:14;15.70;99.90
3488;DHT22;38546;48.170;11.724;2022-08-21T04:03:04;15.70;99.90
3488;DHT22;38546;48.170;11.724;2022-08-21T04:05:55;15.70;99.90
3488;DHT22;38546;48.170;11.724;2022-08-21T04:08:45;15.70;99.90
3488;DHT22;38546;48.170;11.724;2022-08-21T04:11:34;15.70;99.90
3488;DHT22;38546;48.170;11.724;2022-08-21T04:14:23;15.60;99.90
3488;DHT22;38546;48.170;11.724;2022-08-21T04:17:13;15.70;99.90
3488;DHT22;38546;48.170;11.724;2022-08-21T04:20:02;15.70;99.90
3488;DHT22;38546;48.170;11.724;2022-08-21T04:22:53;15.60;99.90
3488;DHT22;38546;48.170;11.724;2022-08-21T04:25:44;15.60;99.90
3488;DHT22;38546;48.170;11.724;2022-08-21T04:28:33;15.50;99.90
3488;DHT22;38546;48.170;11.724;2022-08-21T04:31:24;15.60;99.90
3488;DHT22;38546;48.170;11.724;2022-08-21T04:34:14;15.60;99.90
3488;DHT22;38546;48.170;11.724;2022-08-21T04:37:04;15.50;99.90
3488;DHT22;38546;48.170;11.724;2022-08-21T04:39:53;15.40;99.90
3488;DHT22;38546;48.170;11.724;2022-08-21T04:42:57;15.40;99.90
3488;DHT22;38546;48.170;11.724;2022-08-21T04:45:51;15.40;99.90
3488;DHT22;38546;48.170;11.724;2022-08-21T04:48:40;15.30;99.90
3488;DHT22;38546;48.170;11.724;2022-08-21T04:51:33;15.30;99.90
3488;DHT22;38546;48.170;11.724;2022-08-21T04:54:24;15.30;99.90
3488;DHT22;38546;48.170;11.724;2022-08-21T04:57:14;15.20;99.90
3488;DHT22;38546;48.170;11.724;2022-08-21T05:00:05;15.20;99.90
3488;DHT22;38546;48.170;11.724;2022-08-21T05:02:56;15.10;99.90
3488;DHT22;38546;48.170;11.724;2022-08-21T05:05:48;15.10;99.90
3488;DHT22;38546;48.170;11.724;2022-08-21T05:08:39;15.10;99.90
3488;DHT22;38546;48.170;11.724;2022-08-21T05:11:31;15.10;99.90
3488;DHT22;38546;48.170;11.724;2022-08-21T05:14:20;15.10;99.90
3488;DHT22;38546;48.170;11.724;2022-08-21T05:17:10;15.10;99.90
3488;DHT22;38546;48.170;11.724;2022-08-21T05:20:00;15.10;99.90
3488;DHT22;38546;48.170;11.724;2022-08-21T05:22:53;15.20;99.90
3488;DHT22;38546;48.170;11.724;2022-08-21T05:25:43;15.20;99.90
3488;DHT22;38546;48.170;11.724;2022-08-21T05:28:32;15.20;99.90
3488;DHT22;38546;48.170;11.724;2022-08-21T05:31:22;15.30;99.90
3488;DHT22;38546;48.170;11.724;2022-08-21T05:34:14;15.30;99.90
3488;DHT22;38546;48.170;11.724;2022-08-21T05:37:06;15.40;99.90
3488;DHT22;38546;48.170;11.724;2022-08-21T05:40:00;15.40;99.90
3488;DHT22;38546;48.170;11.724;2022-08-21T05:42:51;15.50;99.90
3488;DHT22;38546;48.170;11.724;2022-08-21T05:45:42;15.60;99.90
3488;DHT22;38546;48.170;11.724;2022-08-21T05:48:32;15.60;99.90
3488;DHT22;38546;48.170;11.724;2022-08-21T05:51:21;15.70;99.90
3488;DHT22;38546;48.170;11.724;2022-08-21T05:54:11;15.80;99.90
3488;DHT22;38546;48.170;11.724;2022-08-21T05:57:00;15.80;99.90
3488;DHT22;38546;48.170;11.724;2022-08-21T05:59:49;15.90;99.90
3488;DHT22;38546;48.170;11.724;2022-08-21T06:02:40;16.00;99.90
3488;DHT22;38546;48.170;11.724;2022-08-21T06:05:30;16.20;99.90
3488;DHT22;38546;48.170;11.724;2022-08-21T06:08:20;16.30;99.90
3488;DHT22;38546;48.170;11.724;2022-08-21T06:11:10;16.60;99.90
3488;DHT22;38546;48.170;11.724;2022-08-21T06:13:59;16.70;99.90
3488;DHT22;38546;48.170;11.724;2022-08-21T06:16:48;16.80;99.90
3488;DHT22;38546;48.170;11.724;2022-08-21T06:19:38;16.90;99.90
3488;DHT22;38546;48.170;11.724;2022-08-21T06:22:27;17.00;99.90
3488;DHT22;38546;48.170;11.724;2022-08-21T06:25:18;17.10;99.90
3488;DHT22;38546;48.170;11.724;2022-08-21T06:28:09;17.20;99.90
3488;DHT22;38546;48.170;11.724;2022-08-21T06:30:58;17.40;99.90
3488;DHT22;38546;48.170;11.724;2022-08-21T06:33:47;17.50;99.90
3488;DHT22;38546;48.170;11.724;2022-08-21T06:36:37;17.70;99.90
3488;DHT22;38546;48.170;11.724;2022-08-21T06:39:25;17.90;99.90
3488;DHT22;38546;48.170;11.724;2022-08-21T06:42:16;18.10;99.90
3488;DHT22;38546;48.170;11.724;2022-08-21T06:45:05;18.40;99.90
3488;DHT22;38546;48.170;11.724;2022-08-21T06:47:55;18.40;99.90
3488;DHT22;38546;48.170;11.724;2022-08-21T06:50:44;18.60;99.90
3488;DHT22;38546;48.170;11.724;2022-08-21T06:53:33;18.70;99.90
3488;DHT22;38546;48.170;11.724;2022-08-21T06:56:22;18.90;99.90
3488;DHT22;38546;48.170;11.724;2022-08-21T06:59:12;19.20;99.90
3488;DHT22;38546;48.170;11.724;2022-08-21T07:02:01;19.40;99.90
3488;DHT22;38546;48.170;11.724;2022-08-21T07:04:50;19.50;99.90
3488;DHT22;38546;48.170;11.724;2022-08-21T07:07:39;19.50;99.90
3488;DHT22;38546;48.170;11.724;2022-08-21T07:10:28;19.50;99.90
3488;DHT22;38546;48.170;11.724;2022-08-21T07:13:18;19.60;99.90
3488;DHT22;38546;48.170;11.724;2022-08-21T07:16:07;19.60;99.90
3488;DHT22;38546;48.170;11.724;2022-08-21T07:18:56;19.80;99.90
3488;DHT22;38546;48.170;11.724;2022-08-21T07:21:46;19.80;99.90
3488;DHT22;38546;48.170;11.724;2022-08-21T07:24:35;19.80;99.90
3488;DHT22;38546;48.170;11.724;2022-08-21T07:27:25;19.80;99.90
3488;DHT22;38546;48.170;11.724;2022-08-21T07:30:14;19.90;99.90
3488;DHT22;38546;48.170;11.724;2022-08-21T07:33:04;20.00;99.90
3488;DHT22;38546;48.170;11.724;2022-08-21T07:35:53;20.00;99.90
3488;DHT22;38546;48.170;11.724;2022-08-21T07:38:43;20.20;99.90
3488;DHT22;38546;48.170;11.724;2022-08-21T07:41:33;20.30;99.90
3488;DHT22;38546;48.170;11.724;2022-08-21T07:44:23;20.40;99.90
3488;DHT22;38546;48.170;11.724;2022-08-21T07:47:12;20.20;99.90
3488;DHT22;38546;48.170;11.724;2022-08-21T07:50:02;20.40;99.90
3488;DHT22;38546;48.170;11.724;2022-08-21T07:52:52;20.40;99.90
3488;DHT22;38546;48.170;11.724;2022-08-21T07:55:41;20.40;99.90
3488;DHT22;38546;48.170;11.724;2022-08-21T07:58:31;20.60;99.90
3488;DHT22;38546;48.170;11.724;2022-08-21T08:01:20;20.60;99.90
3488;DHT22;38546;48.170;11.724;2022-08-21T08:04:10;20.70;99.90
3488;DHT22;38546;48.170;11.724;2022-08-21T08:06:59;20.80;99.90
3488;DHT22;38546;48.170;11.724;2022-08-21T08:09:48;21.00;99.90
3488;DHT22;38546;48.170;11.724;2022-08-21T08:12:40;21.00;99.90
3488;DHT22;38546;48.170;11.724;2022-08-21T08:15:30;21.00;99.90
3488;DHT22;38546;48.170;11.724;2022-08-21T08:18:20;21.20;99.90
3488;DHT22;38546;48.170;11.724;2022-08-21T08:21:11;21.30;99.90
3488;DHT22;38546;48.170;11.724;2022-08-21T08:24:00;21.30;99.90
3488;DHT22;38546;48.170;11.724;2022-08-21T08:26:50;21.40;99.90
3488;DHT22;38546;48.170;11.724;2022-08-21T08:29:39;21.40;99.90
3488;DHT22;38546;48.170;11.724;2022-08-21T08:32:28;21.60;99.90
3488;DHT22;38546;48.170;11.724;2022-08-21T08:35:18;21.70;99.90
3488;DHT22;38546;48.170;11.724;2022-08-21T08:38:07;21.70;99.90
3488;DHT22;38546;48.170;11.724;2022-08-21T08:41:15;21.70;99.90
3488;DHT22;38546;48.170;11.724;2022-08-21T08:44:07;21.70;99.90
3488;DHT22;38546;48.170;11.724;2022-08-21T08:46:58;21.80;99.90
3488;DHT22;38546;48.170;11.724;2022-08-21T08:50:17;22.00;99.90
3488;DHT22;38546;48.170;11.724;2022-08-21T08:53:59;22.10;99.90
3488;DHT22;38546;48.170;11.724;2022-08-21T08:56:51;21.90;99.90
3488;DHT22;38546;48.170;11.724;2022-08-21T08:59:49;22.10;99.90
3488;DHT22;38546;48.170;11.724;2022-08-21T09:02:43;21.90;99.90
3488;DHT22;38546;48.170;11.724;2022-08-21T09:08:29;21.80;99.90
3488;DHT22;38546;48.170;11.724;2022-08-21T09:12:16;22.00;99.90
3488;DHT22;38546;48.170;11.724;2022-08-21T09:17:37;22.20;99.90
3488;DHT22;38546;48.170;11.724;2022-08-21T09:24:00;22.40;99.90
3488;DHT22;38546;48.170;11.724;2022-08-21T09:28:24;22.60;99.90
3488;DHT22;38546;48.170;11.724;2022-08-21T09:33:06;22.60;99.90
3488;DHT22;38546;48.170;11.724;2022-08-21T09:35:57;22.90;99.90
3488;DHT22;38546;48.170;11.724;2022-08-21T09:38:52;22.90;99.90
3488;DHT22;38546;48.170;11.724;2022-08-21T09:41:44;23.10;99.90
3488;DHT22;38546;48.170;11.724;2022-08-21T09:44:38;23.30;99.90
3488;DHT22;38546;48.170;11.724;2022-08-21T09:47:31;23.40;99.90
3488;DHT22;38546;48.170;11.724;2022-08-21T09:50:24;23.40;99.90
3488;DHT22;38546;48.170;11.724;2022-08-21T09:53:26;23.60;99.90
3488;DHT22;38546;48.170;11.724;2022-08-21T09:56:21;23.80;99.90
3488;DHT22;38546;48.170;11.724;2022-08-21T09:59:34;24.20;99.90
3488;DHT22;38546;48.170;11.724;2022-08-21T10:02:34;24.50;99.90
3488;DHT22;38546;48.170;11.724;2022-08-21T10:05:26;24.70;99.90
3488;DHT22;38546;48.170;11.724;2022-08-21T10:08:18;24.70;99.90
3488;DHT22;38546;48.170;11.724;2022-08-21T10:11:14;24.70;99.90
3488;DHT22;38546;48.170;11.724;2022-08-21T10:14:17;24.70;99.90
3488;DHT22;38546;48.170;11.724;2022-08-21T10:17:37;24.40;99.90
3488;DHT22;38546;48.170;11.724;2022-08-21T10:26:56;23.90;99.90
3488;DHT22;38546;48.170;11.724;2022-08-21T10:30:08;24.70;99.90
3488;DHT22;38546;48.170;11.724;2022-08-21T10:33:26;24.40;99.90
3488;DHT22;38546;48.170;11.724;2022-08-21T10:36:33;24.20;99.90
3488;DHT22;38546;48.170;11.724;2022-08-21T10:41:26;24.10;99.90
3488;DHT22;38546;48.170;11.724;2022-08-21T10:47:10;24.10;99.90
3488;DHT22;38546;48.170;11.724;2022-08-21T10:50:12;23.60;99.90
3488;DHT22;38546;48.170;11.724;2022-08-21T10:54:56;23.60;99.90
3488;DHT22;38546;48.170;11.724;2022-08-21T10:59:52;23.90;99.90
3488;DHT22;38546;48.170;11.724;2022-08-21T11:02:53;24.30;99.90
3488;DHT22;38546;48.170;11.724;2022-08-21T11:05:51;24.30;99.90
3488;DHT22;38546;48.170;11.724;2022-08-21T11:08:49;24.30;99.90
3488;DHT22;38546;48.170;11.724;2022-08-21T11:12:46;24.50;99.90
3488;DHT22;38546;48.170;11.724;2022-08-21T11:15:51;24.70;99.90
3488;DHT22;38546;48.170;11.724;2022-08-21T11:18:52;25.10;99.90
3488;DHT22;38546;48.170;11.724;2022-08-21T11:21:58;25.20;99.90
3488;DHT22;38546;48.170;11.724;2022-08-21T11:25:22;25.50;99.90
3488;DHT22;38546;48.170;11.724;2022-08-21T11:28:33;25.80;99.90
3488;DHT22;38546;48.170;11.724;2022-08-21T11:31:42;26.20;99.90
3488;DHT22;38546;48.170;11.724;2022-08-21T11:34:46;26.20;99.90
3488;DHT22;38546;48.170;11.724;2022-08-21T11:38:14;26.20;99.90
3488;DHT22;38546;48.170;11.724;2022-08-21T11:41:32;26.30;99.90
3488;DHT22;38546;48.170;11.724;2022-08-21T11:44:46;26.20;99.90
3488;DHT22;38546;48.170;11.724;2022-08-21T11:49:29;26.50;99.90
3488;DHT22;38546;48.170;11.724;2022-08-21T11:59:17;26.10;99.90
3488;DHT22;38546;48.170;11.724;2022-08-21T12:02:14;25.10;99.90
3488;DHT22;38546;48.170;11.724;2022-08-21T12:05:08;24.80;99.90
3488;DHT22;38546;48.170;11.724;2022-08-21T12:08:12;24.70;99.90
3488;DHT22;38546;48.170;11.724;2022-08-21T12:14:47;24.60;99.90
3488;DHT22;38546;48.170;11.724;2022-08-21T12:17:40;24.80;99.90
3488;DHT22;38546;48.170;11.724;2022-08-21T12:20:45;24.70;99.90
3488;DHT22;38546;48.170;11.724;2022-08-21T12:24:37;24.50;99.90
3488;DHT22;38546;48.170;11.724;2022-08-21T12:27:52;24.20;99.90
3488;DHT22;38546;48.170;11.724;2022-08-21T12:30:44;24.30;99.90
3488;DHT22;38546;48.170;11.724;2022-08-21T12:33:38;24.10;99.90
3488;DHT22;38546;48.170;11.724;2022-08-21T12:36:55;24.00;99.90
3488;DHT22;38546;48.170;11.724;2022-08-21T12:39:48;24.20;99.90
3488;DHT22;38546;48.170;11.724;2022-08-21T12:42:44;24.10;99.90
3488;DHT22;38546;48.170;11.724;2022-08-21T12:45:46;23.90;99.90
3488;DHT22;38546;48.170;11.724;2022-08-21T12:49:07;23.90;99.90
3488;DHT22;38546;48.170;11.724;2022-08-21T12:52:24;24.20;99.90
3488;DHT22;38546;48.170;11.724;2022-08-21T12:55:30;24.30;99.90
3488;DHT22;38546;48.170;11.724;2022-08-21T12:58:24;24.60;99.90
3488;DHT22;38546;48.170;11.724;2022-08-21T13:01:54;24.60;99.90
3488;DHT22;38546;48.170;11.724;2022-08-21T13:04:46;24.50;99.90
3488;DHT22;38546;48.170;11.724;2022-08-21T13:07:37;24.50;99.90
3488;DHT22;38546;48.170;11.724;2022-08-21T13:10:32;24.30;99.90
3488;DHT22;38546;48.170;11.724;2022-08-21T13:13:25;24.20;99.90
3488;DHT22;38546;48.170;11.724;2022-08-21T13:16:27;24.40;99.90
3488;DHT22;38546;48.170;11.724;2022-08-21T13:19:17;24.40;99.90
3488;DHT22;38546;48.170;11.724;2022-08-21T13:22:15;24.30;99.90
3488;DHT22;38546;48.170;11.724;2022-08-21T13:25:10;24.30;99.90
3488;DHT22;38546;48.170;11.724;2022-08-21T13:28:08;24.10;99.90
3488;DHT22;38546;48.170;11.724;2022-08-21T13:31:00;24.00;99.90
3488;DHT22;38546;48.170;11.724;2022-08-21T13:33:54;24.20;99.90
3488;DHT22;38546;48.170;11.724;2022-08-21T13:36:45;24.40;99.90
3488;DHT22;38546;48.170;11.724;2022-08-21T13:39:36;24.30;99.90
3488;DHT22;38546;48.170;11.724;2022-08-21T13:42:27;24.20;99.90
3488;DHT22;38546;48.170;11.724;2022-08-21T13:45:30;24.30;99.90
3488;DHT22;38546;48.170;11.724;2022-08-21T13:48:23;24.40;99.90
3488;DHT22;38546;48.170;11.724;2022-08-21T13:51:15;24.50;99.90
3488;DHT22;38546;48.170;11.724;2022-08-21T13:54:19;24.50;99.90
3488;DHT22;38546;48.170;11.724;2022-08-21T13:57:25;24.60;99.90
3488;DHT22;38546;48.170;11.724;2022-08-21T14:00:26;24.50;99.90
3488;DHT22;38546;48.170;11.724;2022-08-21T14:03:38;24.70;99.90
3488;DHT22;38546;48.170;11.724;2022-08-21T14:06:37;24.70;99.30
3488;DHT22;38546;48.170;11.724;2022-08-21T14:09:39;24.40;99.90
3488;DHT22;38546;48.170;11.724;2022-08-21T14:12:47;24.30;99.90
3488;DHT22;38546;48.170;11.724;2022-08-21T14:15:40;24.30;99.90
3488;DHT22;38546;48.170;11.724;2022-08-21T14:18:29;24.30;99.90
3488;DHT22;38546;48.170;11.724;2022-08-21T14:21:32;24.40;99.70
3488;DHT22;38546;48.170;11.724;2022-08-21T14:24:29;24.60;99.90
3488;DHT22;38546;48.170;11.724;2022-08-21T14:27:19;24.50;99.90
3488;DHT22;38546;48.170;11.724;2022-08-21T14:30:12;24.40;99.90
3488;DHT22;38546;48.170;11.724;2022-08-21T14:33:20;24.30;99.90
3488;DHT22;38546;48.170;11.724;2022-08-21T14:36:14;24.30;99.90
3488;DHT22;38546;48.170;11.724;2022-08-21T14:39:04;24.30;99.90
3488;DHT22;38546;48.170;11.724;2022-08-21T14:41:53;24.10;99.90
3488;DHT22;38546;48.170;11.724;2022-08-21T14:44:43;24.30;99.90
3488;DHT22;38546;48.170;11.724;2022-08-21T14:47:33;24.40;99.90
3488;DHT22;38546;48.170;11.724;2022-08-21T14:50:23;24.50;99.90
3488;DHT22;38546;48.170;11.724;2022-08-21T14:53:12;24.30;99.90
3488;DHT22;38546;48.170;11.724;2022-08-21T14:56:02;24.30;99.90
3488;DHT22;38546;48.170;11.724;2022-08-21T14:58:55;24.30;99.90
3488;DHT22;38546;48.170;11.724;2022-08-21T15:01:49;24.50;99.90
3488;DHT22;38546;48.170;11.724;2022-08-21T15:04:38;24.50;99.90
3488;DHT22;38546;48.170;11.724;2022-08-21T15:07:27;24.60;99.90
3488;DHT22;38546;48.170;11.724;2022-08-21T15:10:17;24.70;99.30
3488;DHT22;38546;48.170;11.724;2022-08-21T15:13:07;25.00;98.90
3488;DHT22;38546;48.170;11.724;2022-08-21T15:15:57;25.00;99.70
3488;DHT22;38546;48.170;11.724;2022-08-21T15:18:46;24.90;99.90
3488;DHT22;38546;48.170;11.724;2022-08-21T15:21:35;24.80;99.60
3488;DHT22;38546;48.170;11.724;2022-08-21T15:24:24;24.90;98.80
3488;DHT22;38546;48.170;11.724;2022-08-21T15:27:15;24.90;98.10
3488;DHT22;38546;48.170;11.724;2022-08-21T15:30:06;24.80;98.20
3488;DHT22;38546;48.170;11.724;2022-08-21T15:32:56;24.80;98.20
3488;DHT22;38546;48.170;11.724;2022-08-21T15:35:46;24.90;97.50
3488;DHT22;38546;48.170;11.724;2022-08-21T15:38:34;24.70;98.20
3488;DHT22;38546;48.170;11.724;2022-08-21T15:41:23;25.00;97.20
3488;DHT22;38546;48.170;11.724;2022-08-21T15:44:13;25.00;96.50
3488;DHT22;38546;48.170;11.724;2022-08-21T15:47:03;25.00;96.50
3488;DHT22;38546;48.170;11.724;2022-08-21T15:50:01;25.00;97.50
3488;DHT22;38546;48.170;11.724;2022-08-21T15:52:50;24.90;96.90
3488;DHT22;38546;48.170;11.724;2022-08-21T15:55:40;25.00;96.10
3488;DHT22;38546;48.170;11.724;2022-08-21T15:58:29;24.80;95.40
3488;DHT22;38546;48.170;11.724;2022-08-21T16:01:20;24.90;95.70
3488;DHT22;38546;48.170;11.724;2022-08-21T16:04:12;24.90;95.90
3488;DHT22;38546;48.170;11.724;2022-08-21T16:07:06;25.10;96.20
3488;DHT22;38546;48.170;11.724;2022-08-21T16:09:56;25.00;96.20
3488;DHT22;38546;48.170;11.724;2022-08-21T16:12:49;24.90;96.10
3488;DHT22;38546;48.170;11.724;2022-08-21T16:15:39;24.90;95.90
3488;DHT22;38546;48.170;11.724;2022-08-21T16:18:29;25.00;95.10
3488;DHT22;38546;48.170;11.724;2022-08-21T16:21:18;24.90;95.60
3488;DHT22;38546;48.170;11.724;2022-08-21T16:24:08;24.90;95.70
3488;DHT22;38546;48.170;11.724;2022-08-21T16:26:57;24.90;95.90
3488;DHT22;38546;48.170;11.724;2022-08-21T16:29:47;24.80;95.80
3488;DHT22;38546;48.170;11.724;2022-08-21T16:32:37;24.80;95.70
3488;DHT22;38546;48.170;11.724;2022-08-21T16:35:26;24.70;95.30
3488;DHT22;38546;48.170;11.724;2022-08-21T16:38:15;24.60;95.40
3488;DHT22;38546;48.170;11.724;2022-08-21T16:41:08;24.70;95.40
3488;DHT22;38546;48.170;11.724;2022-08-21T16:43:59;24.60;95.50
3488;DHT22;38546;48.170;11.724;2022-08-21T16:46:49;24.60;95.90
3488;DHT22;38546;48.170;11.724;2022-08-21T16:49:38;24.70;96.00
3488;DHT22;38546;48.170;11.724;2022-08-21T16:52:28;24.50;96.10
3488;DHT22;38546;48.170;11.724;2022-08-21T16:55:17;24.30;96.60
3488;DHT22;38546;48.170;11.724;2022-08-21T16:58:16;24.30;96.60
3488;DHT22;38546;48.170;11.724;2022-08-21T17:01:17;24.10;97.20
3488;DHT22;38546;48.170;11.724;2022-08-21T17:04:08;24.00;97.00
3488;DHT22;38546;48.170;11.724;2022-08-21T17:06:58;24.10;96.90
3488;DHT22;38546;48.170;11.724;2022-08-21T17:09:47;24.20;96.80
3488;DHT22;38546;48.170;11.724;2022-08-21T17:12:36;24.30;96.80
3488;DHT22;38546;48.170;11.724;2022-08-21T17:15:32;24.10;96.90
3488;DHT22;38546;48.170;11.724;2022-08-21T17:18:24;24.00;97.20
3488;DHT22;38546;48.170;11.724;2022-08-21T17:21:14;23.80;97.70
3488;DHT22;38546;48.170;11.724;2022-08-21T17:24:04;23.70;97.80
3488;DHT22;38546;48.170;11.724;2022-08-21T17:26:53;23.60;98.10
3488;DHT22;38546;48.170;11.724;2022-08-21T17:29:44;23.50;97.90
3488;DHT22;38546;48.170;11.724;2022-08-21T17:32:32;23.50;98.30
3488;DHT22;38546;48.170;11.724;2022-08-21T17:35:22;23.40;98.30
3488;DHT22;38546;48.170;11.724;2022-08-21T17:38:12;23.30;98.80
3488;DHT22;38546;48.170;11.724;2022-08-21T17:41:02;23.20;98.80
3488;DHT22;38546;48.170;11.724;2022-08-21T17:43:52;23.20;98.90
3488;DHT22;38546;48.170;11.724;2022-08-21T17:46:43;23.10;99.20
3488;DHT22;38546;48.170;11.724;2022-08-21T17:49:32;23.00;99.10
3488;DHT22;38546;48.170;11.724;2022-08-21T17:52:22;22.90;99.80
3488;DHT22;38546;48.170;11.724;2022-08-21T17:55:13;22.80;99.90
3488;DHT22;38546;48.170;11.724;2022-08-21T17:58:04;22.70;99.90
3488;DHT22;38546;48.170;11.724;2022-08-21T18:00:53;22.60;99.90
3488;DHT22;38546;48.170;11.724;2022-08-21T18:03:43;22.50;99.90
3488;DHT22;38546;48.170;11.724;2022-08-21T18:06:35;22.40;99.90
3488;DHT22;38546;48.170;11.724;2022-08-21T18:09:24;22.30;99.90
3488;DHT22;38546;48.170;11.724;2022-08-21T18:12:16;22.10;99.90
3488;DHT22;38546;48.170;11.724;2022-08-21T18:15:06;22.10;99.90
3488;DHT22;38546;48.170;11.724;2022-08-21T18:17:57;22.00;99.90
3488;DHT22;38546;48.170;11.724;2022-08-21T18:20:47;21.90;99.90
3488;DHT22;38546;48.170;11.724;2022-08-21T18:23:37;21.70;99.90
3488;DHT22;38546;48.170;11.724;2022-08-21T18:26:30;21.60;99.90
3488;DHT22;38546;48.170;11.724;2022-08-21T18:29:22;21.40;99.90
3488;DHT22;38546;48.170;11.724;2022-08-21T18:32:12;21.30;99.90
3488;DHT22;38546;48.170;11.724;2022-08-21T18:35:04;21.20;99.90
3488;DHT22;38546;48.170;11.724;2022-08-21T18:37:55;21.00;99.90
3488;DHT22;38546;48.170;11.724;2022-08-21T18:40:48;21.00;99.90
3488;DHT22;38546;48.170;11.724;2022-08-21T18:43:38;20.80;99.90
3488;DHT22;38546;48.170;11.724;2022-08-21T18:46:27;20.70;99.90
3488;DHT22;38546;48.170;11.724;2022-08-21T18:49:17;20.60;99.90
3488;DHT22;38546;48.170;11.724;2022-08-21T18:52:07;20.50;99.90
3488;DHT22;38546;48.170;11.724;2022-08-21T18:54:56;20.40;99.90